東京/横田 の空港の天気 - METARとTAF

横田飛行場 ( RJTY / OKO ) - 東京都福生市
飛行場実況気象(Metar)
観測時間10/16 01:56 JST (10/15 16:56 UTC)
風向・風速北 4m/s
視程10km以上
天気現象
全天を覆う雲 雲底高度 820m
気温13.7℃
湿度85%
気圧1026.3hPa
METARRJTY 151656Z AUTO 01007KT 10SM OVC027 14/11 A3030 RMK AO2 CIG 023 RWY18 SLP263 T01370112 FZRANO $
過去の天気等 Google飛行場航空写真 Wunderground天気予報

過去48時間のMETAR

飛行場予報(TAF)
発表時間: 10/15 22:00 JST (10/15 13:00 UTC)
予報対象時間: 15日22時 JST ~ 17日4時 JST
風向・風速北東 5m/s
視程8000m
天気現象弱いしゅう雨
全天の4割程度の雲 雲底高度 460m
全天を覆う雲 雲底高度 610m
16日0時 JST ~ 16日1時 JST に徐々に
風向・風速不定 3m/s
視程10km以上
天気現象運行に影響にある天気現象が終了
全天の4割程度の雲 雲底高度 430m
全天の8割程度の雲 雲底高度 1220m
全天を覆う雲 雲底高度 1830m
16日15時 JST ~ 16日16時 JST に徐々に
風向・風速北東 5m/s
視程10km以上
全天の4割程度の雲 雲底高度 430m
全天の8割程度の雲 雲底高度 610m
TAF RJTY 151300Z 1513/1619 04009KT 8000 -SHRA SCT015 OVC020 QNH3020INS
BECMG 1515/1516 VRB06KT 9999 NSW SCT014 BKN040 OVC060 QNH3024INS
BECMG 1606/1607 05009KT 9999 SCT014 BKN020 QNH3023INS TX22/1605Z TN12/1520Z LAST NO AMDS AFT 1513 NEXT 1621
日本の空港のMETAR・TAFへのリンク

RJTT 東京国際空港
RJAA 新東京国際空港
RJBB 関西国際空港
RJOO 大阪空港
RJGG 中部国際空港
RJCC 新千歳空港
RJFF 福岡空港
ROAH 那覇空港


RJEC 旭川空港
RJCH 函館空港
RJCK 釧路空港
RJCM 女満別空港
RJCB 帯広空港
RJSA 青森空港
RJSS 仙台空港
RJSK 秋田空港
RJSF 福島空港
RJAH 茨城空港
RJSN 新潟空港
RJNT 富山空港
RJNK 小松飛行場
RJNS 静岡空港
RJOH 美保飛行場
RJOC 出雲空港
RJOB 岡山空港
RJOA 広島空港
RJOI 岩国飛行場
RJOT 高松空港
RJOM 松山空港
RJOK 高知空港
RJFR 北九州空港
RJFT 熊本空港
RJFU 長崎空港
RJFS 佐賀空港
RJFO 大分空港
RJFM 宮崎空港
RJFK 鹿児島空港
ROIG 石垣島空港
RJTY 横田飛行場
ROTM 普天間飛行場
RODN 嘉手納飛行場